createdAt,value
2018-01-11T00:01:59.982Z,10.67
2018-01-11T00:04:27.445Z,8.33
2018-01-11T00:06:54.916Z,9.37
2018-01-11T00:09:23.157Z,9.27
2018-01-11T00:11:50.632Z,11.50
2018-01-11T00:14:18.708Z,7.87
2018-01-11T00:16:46.232Z,10.33
2018-01-11T00:19:13.735Z,10.43
2018-01-11T00:21:42.184Z,9.20
2018-01-11T00:24:09.653Z,9.00
2018-01-11T00:26:37.277Z,12.43
2018-01-11T00:29:04.833Z,8.20
2018-01-11T00:31:32.306Z,12.43
2018-01-11T00:33:59.760Z,13.07
2018-01-11T00:36:27.230Z,8.50
2018-01-11T00:38:55.712Z,9.53
2018-01-11T00:41:23.180Z,13.00
2018-01-11T00:43:50.660Z,8.00
2018-01-11T00:46:18.976Z,11.90
2018-01-11T00:48:46.436Z,12.30
2018-01-11T00:51:13.895Z,8.60
2018-01-11T00:53:41.358Z,10.60
2018-01-11T00:56:09.709Z,13.30
2018-01-11T00:58:37.181Z,10.73
2018-01-11T01:01:04.749Z,15.20
2018-01-11T01:03:33.064Z,11.27
2018-01-11T01:06:00.517Z,10.90
2018-01-11T01:08:28.757Z,9.90
2018-01-11T01:10:56.212Z,9.27
2018-01-11T01:13:23.788Z,14.50
2018-01-11T01:15:51.248Z,14.23
2018-01-11T01:18:18.929Z,9.90
2018-01-11T01:20:46.435Z,11.17
2018-01-11T01:23:14.037Z,11.87
2018-01-11T01:25:41.689Z,9.67
2018-01-11T01:28:09.273Z,10.73
2018-01-11T01:30:36.728Z,9.77
2018-01-11T01:33:04.289Z,12.50
2018-01-11T01:35:31.757Z,12.23
2018-01-11T01:37:59.985Z,14.23
2018-01-11T01:40:27.462Z,11.17
2018-01-11T01:42:55.048Z,12.40
2018-01-11T01:45:23.346Z,12.20
2018-01-11T01:47:51.795Z,8.97
2018-01-11T01:50:19.261Z,9.07
2018-01-11T01:52:47.505Z,10.53
2018-01-11T01:55:14.980Z,13.20
2018-01-11T01:57:42.437Z,9.50
2018-01-11T02:00:10.012Z,10.67
2018-01-11T02:02:38.232Z,14.07
2018-01-11T02:05:05.781Z,10.27
2018-01-11T02:07:33.368Z,13.23
2018-01-11T02:10:00.828Z,9.67
2018-01-11T02:12:28.305Z,11.30
2018-01-11T02:14:55.774Z,12.33
2018-01-11T02:17:24.945Z,9.87
2018-01-11T02:19:52.409Z,13.67
2018-01-11T02:22:20.880Z,12.83
2018-01-11T02:24:48.344Z,10.33
2018-01-11T02:27:15.830Z,11.40
2018-01-11T02:29:44.049Z,9.70
2018-01-11T02:32:11.526Z,10.50
2018-01-11T02:34:38.984Z,11.83
2018-01-11T02:37:06.557Z,10.77
2018-01-11T02:39:34.002Z,11.57
2018-01-11T02:42:01.477Z,12.70
2018-01-11T02:44:29.693Z,12.33
2018-01-11T02:46:57.157Z,12.23
2018-01-11T02:49:24.668Z,10.07
2018-01-11T02:51:52.376Z,12.97
2018-01-11T02:54:19.846Z,11.00
2018-01-11T02:56:51.185Z,12.37
2018-01-11T02:59:18.645Z,9.73
2018-01-11T03:01:46.604Z,8.90
2018-01-11T03:04:14.108Z,11.70
2018-01-11T03:06:42.432Z,11.70
2018-01-11T03:09:11.511Z,10.00
2018-01-11T03:11:39.089Z,10.17
2018-01-11T03:14:06.650Z,15.23
2018-01-11T03:16:34.108Z,11.47
2018-01-11T03:19:02.585Z,13.00
2018-01-11T03:21:30.177Z,11.67
2018-01-11T03:23:57.625Z,13.33
2018-01-11T03:26:25.116Z,11.10
2018-01-11T03:28:52.570Z,13.70
2018-01-11T03:31:20.805Z,12.73
2018-01-11T03:33:48.257Z,8.57
2018-01-11T03:36:15.726Z,13.60
2018-01-11T03:38:43.176Z,9.20
2018-01-11T03:41:10.662Z,10.10
2018-01-11T03:43:38.984Z,11.60
2018-01-11T03:46:07.431Z,9.33
2018-01-11T03:48:36.912Z,8.83
2018-01-11T03:51:04.386Z,9.37
2018-01-11T03:53:31.861Z,11.43
2018-01-11T03:56:00.088Z,13.03
2018-01-11T03:58:27.578Z,10.00
2018-01-11T04:00:55.032Z,10.27
2018-01-11T04:03:22.494Z,10.40
2018-01-11T04:05:50.720Z,8.70
2018-01-11T04:08:18.193Z,15.47
2018-01-11T04:10:46.545Z,9.00
2018-01-11T04:13:14.005Z,9.10
2018-01-11T04:15:41.512Z,12.90
2018-01-11T04:18:09.015Z,11.90
2018-01-11T04:20:38.168Z,9.77
2018-01-11T04:23:06.473Z,13.43
2018-01-11T04:25:33.947Z,12.50
2018-01-11T04:28:01.988Z,15.37
2018-01-11T04:30:30.218Z,11.27
2018-01-11T04:32:58.624Z,11.97
2018-01-11T04:35:27.093Z,20.83
2018-01-11T04:37:54.549Z,12.97
2018-01-11T04:40:23.720Z,11.90
2018-01-11T04:42:51.189Z,12.20
2018-01-11T04:45:19.528Z,11.27
2018-01-11T04:47:47.005Z,11.30
2018-01-11T04:50:14.588Z,13.47
2018-01-11T04:52:42.210Z,16.03
2018-01-11T04:55:10.609Z,11.43
2018-01-11T04:57:38.068Z,12.17
2018-01-11T05:00:05.533Z,8.87
2018-01-11T05:02:32.991Z,13.63
2018-01-11T05:05:00.460Z,10.73
2018-01-11T05:07:27.920Z,13.10
2018-01-11T05:09:55.389Z,10.13
2018-01-11T05:12:22.844Z,11.40
2018-01-11T05:14:50.309Z,10.47
2018-01-11T05:17:17.772Z,14.43
2018-01-11T05:19:46.017Z,8.17
2018-01-11T05:22:13.496Z,8.77
2018-01-11T05:24:42.456Z,8.20
2018-01-11T05:27:09.929Z,10.97
2018-01-11T05:29:37.392Z,9.50
2018-01-11T05:32:04.876Z,16.67
2018-01-11T05:34:34.261Z,9.40
2018-01-11T05:37:01.683Z,9.97
2018-01-11T05:39:29.352Z,11.27
2018-01-11T05:41:56.816Z,8.23
2018-01-11T05:44:25.044Z,8.20
2018-01-11T05:46:52.512Z,7.87
2018-01-11T05:49:19.977Z,9.20
2018-01-11T05:51:47.508Z,8.47
2018-01-11T05:54:14.993Z,9.13
2018-01-11T05:56:43.344Z,9.43
2018-01-11T05:59:10.834Z,7.80
2018-01-11T06:01:38.287Z,9.10
2018-01-11T06:04:05.892Z,13.40
2018-01-11T06:06:34.116Z,11.60
2018-01-11T06:09:01.596Z,16.20
2018-01-11T06:11:29.944Z,15.67
2018-01-11T06:13:57.562Z,12.83
2018-01-11T06:16:25.026Z,12.90
2018-01-11T06:18:54.113Z,9.23
2018-01-11T06:21:22.340Z,13.90
2018-01-11T06:23:49.801Z,15.10
2018-01-11T06:26:17.271Z,12.77
2018-01-11T06:28:45.487Z,11.20
2018-01-11T06:31:13.861Z,11.23
2018-01-11T06:33:42.152Z,13.37
2018-01-11T06:36:10.452Z,13.30
2018-01-11T06:38:37.921Z,12.20
2018-01-11T06:41:05.384Z,15.53
2018-01-11T06:43:33.797Z,12.40
2018-01-11T06:46:02.093Z,11.10
2018-01-11T06:48:29.673Z,11.17
2018-01-11T06:50:57.132Z,11.50
2018-01-11T06:53:24.599Z,10.43
2018-01-11T06:55:52.074Z,10.67
2018-01-11T06:58:19.520Z,9.87
2018-01-11T07:00:46.998Z,10.83
2018-01-11T07:03:14.469Z,10.20
2018-01-11T07:05:43.717Z,11.67
2018-01-11T07:08:11.229Z,10.80
2018-01-11T07:10:39.469Z,14.47
2018-01-11T07:13:06.942Z,11.63
2018-01-11T07:15:34.404Z,11.37
2018-01-11T07:18:01.884Z,11.03
2018-01-11T07:20:29.481Z,13.43
2018-01-11T07:22:57.001Z,13.53
2018-01-11T07:25:24.430Z,18.00
2018-01-11T07:27:51.900Z,13.67
2018-01-11T07:30:19.372Z,16.53
2018-01-11T07:32:47.605Z,16.53
2018-01-11T07:35:15.068Z,14.17
2018-01-11T07:37:42.564Z,15.30
2018-01-11T07:40:10.806Z,15.67
2018-01-11T07:42:39.112Z,17.70
2018-01-11T07:45:07.351Z,18.90
2018-01-11T07:47:34.815Z,18.77
2018-01-11T07:50:02.288Z,18.50
2018-01-11T07:52:32.033Z,17.90
2018-01-11T07:54:59.625Z,15.57
2018-01-11T07:57:27.661Z,18.70
2018-01-11T07:59:55.122Z,22.20
2018-01-11T08:02:22.667Z,14.57
2018-01-11T08:04:50.933Z,16.90
2018-01-11T08:07:19.173Z,14.93
2018-01-11T08:09:46.639Z,18.03
2018-01-11T08:12:14.713Z,16.23
2018-01-11T08:14:43.041Z,20.97
2018-01-11T08:17:10.521Z,14.80
2018-01-11T08:19:38.042Z,20.90
2018-01-11T08:22:06.291Z,16.17
2018-01-11T08:24:33.773Z,20.33
2018-01-11T08:27:02.222Z,26.13
2018-01-11T08:29:29.676Z,12.60
2018-01-11T08:31:57.161Z,19.47
2018-01-11T08:34:25.396Z,14.17
2018-01-11T08:36:52.856Z,16.40
2018-01-11T08:39:20.341Z,13.27
2018-01-11T08:41:48.643Z,16.70
2018-01-11T08:44:17.133Z,15.60
2018-01-11T08:46:44.604Z,14.77
2018-01-11T08:49:12.097Z,14.33
2018-01-11T08:51:39.573Z,16.10
2018-01-11T08:54:07.857Z,19.03
2018-01-11T08:56:36.203Z,23.43
2018-01-11T08:59:03.674Z,17.13
2018-01-11T09:01:31.278Z,19.30
2018-01-11T09:04:00.884Z,21.10
2018-01-11T09:06:28.356Z,21.77
2018-01-11T09:08:55.851Z,17.40
2018-01-11T09:11:23.316Z,18.97
2018-01-11T09:13:51.548Z,17.47
2018-01-11T09:16:19.018Z,22.33
2018-01-11T09:18:46.487Z,18.47
2018-01-11T09:21:14.942Z,17.40
2018-01-11T09:23:42.427Z,21.80
2018-01-11T09:26:09.900Z,17.20
2018-01-11T09:28:38.128Z,22.10
2018-01-11T09:31:06.542Z,21.50
2018-01-11T09:33:34.999Z,14.60
2018-01-11T09:36:02.584Z,27.03
2018-01-11T09:38:30.095Z,17.20
2018-01-11T09:40:57.730Z,17.97
2018-01-11T09:43:25.285Z,20.07
2018-01-11T09:45:54.353Z,20.60
2018-01-11T09:48:21.836Z,19.60
2018-01-11T09:50:50.092Z,18.13
2018-01-11T09:53:17.561Z,19.27
2018-01-11T09:55:45.785Z,17.83
2018-01-11T09:58:13.257Z,20.57
2018-01-11T10:00:40.732Z,19.67
2018-01-11T10:03:08.200Z,19.10
2018-01-11T10:05:36.655Z,17.10
2018-01-11T10:08:05.170Z,18.80
2018-01-11T10:10:33.424Z,20.87
2018-01-11T10:13:00.888Z,16.57
2018-01-11T10:15:28.376Z,30.53
2018-01-11T10:17:55.836Z,18.47
2018-01-11T10:20:23.324Z,16.80
2018-01-11T10:22:50.789Z,18.67
2018-01-11T10:25:18.271Z,17.60
2018-01-11T10:27:45.802Z,18.23
2018-01-11T10:30:13.337Z,21.53
2018-01-11T10:32:40.912Z,18.63
2018-01-11T10:35:09.405Z,19.17
2018-01-11T10:37:36.872Z,18.13
2018-01-11T10:40:04.365Z,20.57
2018-01-11T10:42:32.593Z,25.67
2018-01-11T10:45:01.053Z,18.33
2018-01-11T10:47:28.532Z,17.17
2018-01-11T10:49:56.003Z,23.17
2018-01-11T10:52:24.449Z,19.10
2018-01-11T10:54:51.925Z,17.33
2018-01-11T10:57:19.409Z,17.60
2018-01-11T10:59:46.859Z,17.93
2018-01-11T11:02:19.907Z,23.53
2018-01-11T11:04:48.235Z,18.07
2018-01-11T11:07:15.703Z,16.53
2018-01-11T11:09:43.945Z,20.13
2018-01-11T11:12:11.481Z,20.63
2018-01-11T11:14:38.952Z,23.20
2018-01-11T11:17:06.528Z,17.80
2018-01-11T11:19:34.025Z,18.80
2018-01-11T11:22:01.644Z,18.90
2018-01-11T11:24:29.189Z,19.80
2018-01-11T11:26:57.688Z,19.07
2018-01-11T11:29:25.241Z,18.73
2018-01-11T11:31:52.798Z,17.20
2018-01-11T11:34:20.272Z,28.23
2018-01-11T11:36:48.503Z,24.63
2018-01-11T11:39:15.985Z,20.77
2018-01-11T11:41:43.457Z,23.80
2018-01-11T11:44:11.680Z,20.23
2018-01-11T11:46:39.160Z,27.53
2018-01-11T11:49:07.546Z,23.47
2018-01-11T11:51:35.021Z,20.57
2018-01-11T11:54:02.496Z,21.63
2018-01-11T11:56:30.732Z,20.47
2018-01-11T11:58:58.189Z,23.93
2018-01-11T12:01:25.669Z,26.67
2018-01-11T12:03:53.124Z,21.07
2018-01-11T12:06:23.145Z,23.73
2018-01-11T12:08:50.622Z,21.67
2018-01-11T12:11:18.877Z,21.03
2018-01-11T12:13:48.109Z,26.90
2018-01-11T12:16:15.587Z,24.70
2018-01-11T12:18:43.045Z,29.13
2018-01-11T12:21:10.521Z,22.40
2018-01-11T12:23:38.824Z,21.70
2018-01-11T12:26:07.068Z,24.00
2018-01-11T12:28:35.481Z,20.70
2018-01-11T12:31:03.717Z,22.17
2018-01-11T12:33:31.333Z,25.70
2018-01-11T12:35:58.806Z,26.03
2018-01-11T12:38:26.322Z,28.00
2018-01-11T12:40:53.792Z,26.30
2018-01-11T12:43:22.909Z,22.60
2018-01-11T12:45:50.387Z,21.73
2018-01-11T12:48:17.875Z,24.17
2018-01-11T12:50:45.351Z,23.30
2018-01-11T12:53:12.836Z,26.00
2018-01-11T12:55:40.316Z,26.30
2018-01-11T12:58:07.793Z,30.53
2018-01-11T13:00:35.270Z,28.50
2018-01-11T13:03:03.654Z,23.63
2018-01-11T13:05:31.136Z,24.13
2018-01-11T13:07:59.369Z,23.57
2018-01-11T13:10:27.721Z,26.37
2018-01-11T13:12:55.176Z,19.03
2018-01-11T13:15:22.678Z,20.53
2018-01-11T13:17:50.144Z,19.07
2018-01-11T13:20:20.361Z,20.50
2018-01-11T13:22:48.265Z,19.90
2018-01-11T13:25:15.763Z,20.70
2018-01-11T13:27:43.254Z,18.17
2018-01-11T13:30:11.488Z,21.70
2018-01-11T13:32:38.970Z,23.20
2018-01-11T13:35:06.432Z,24.13
2018-01-11T13:37:34.674Z,21.30
2018-01-11T13:40:02.146Z,15.97
2018-01-11T13:42:29.640Z,19.00
2018-01-11T13:44:57.909Z,18.03
2018-01-11T13:47:27.300Z,18.53
2018-01-11T13:49:55.547Z,23.00
2018-01-11T13:52:23.028Z,20.43
2018-01-11T13:54:50.548Z,18.50
2018-01-11T13:57:18.027Z,21.67
2018-01-11T13:59:45.544Z,19.60
2018-01-11T14:02:13.907Z,21.13
2018-01-11T14:04:41.400Z,19.80
2018-01-11T14:07:08.882Z,20.80
2018-01-11T14:09:36.364Z,17.93
2018-01-11T14:12:05.460Z,19.00
2018-01-11T14:14:33.697Z,16.40
2018-01-11T14:17:01.181Z,18.77
2018-01-11T14:19:28.690Z,15.23
2018-01-11T14:21:57.177Z,17.97
2018-01-11T14:24:24.654Z,15.10
2018-01-11T14:26:52.162Z,19.03
2018-01-11T14:29:21.485Z,18.00
2018-01-11T14:31:49.056Z,19.93
2018-01-11T14:34:16.603Z,21.33
2018-01-11T14:36:45.736Z,17.77
2018-01-11T14:39:13.309Z,17.63
2018-01-11T14:41:40.792Z,25.90
2018-01-11T14:44:08.276Z,34.57
2018-01-11T14:46:35.760Z,43.83
2018-01-11T14:49:03.234Z,38.50
2018-01-11T14:51:31.560Z,32.90
2018-01-11T14:53:59.093Z,40.20
2018-01-11T14:56:26.529Z,40.57
2018-01-11T14:58:54.004Z,44.87
2018-01-11T15:01:23.230Z,38.53
2018-01-11T15:03:50.997Z,37.70
2018-01-11T15:06:18.456Z,40.23
2018-01-11T15:08:45.966Z,37.60
2018-01-11T15:11:14.204Z,36.57
2018-01-11T15:13:41.704Z,36.23
2018-01-11T15:16:09.942Z,34.23
2018-01-11T15:18:37.450Z,32.83
2018-01-11T15:21:05.687Z,36.13
2018-01-11T15:23:33.158Z,31.47
2018-01-11T15:26:01.381Z,41.17
2018-01-11T15:28:28.862Z,31.07
2018-01-11T15:30:56.359Z,26.90
2018-01-11T15:33:24.596Z,38.63
2018-01-11T15:35:52.069Z,32.07
2018-01-11T15:38:19.548Z,30.20
2018-01-11T15:40:47.807Z,40.23
2018-01-11T15:43:16.040Z,29.93
2018-01-11T15:45:43.521Z,34.10
2018-01-11T15:48:11.478Z,35.80
2018-01-11T15:50:38.972Z,32.30
2018-01-11T15:53:07.302Z,31.40
2018-01-11T15:55:34.794Z,34.20
2018-01-11T15:58:02.528Z,34.50
2018-01-11T16:00:30.288Z,34.27
2018-01-11T16:02:58.086Z,37.17
2018-01-11T16:05:26.565Z,45.37
2018-01-11T16:07:54.046Z,41.17
2018-01-11T16:10:22.296Z,43.87
2018-01-11T16:12:50.709Z,39.33
2018-01-11T16:15:19.013Z,40.23
2018-01-11T16:17:46.493Z,42.13
2018-01-11T16:40:11.498Z,41.73
2018-01-11T16:42:39.021Z,39.50
2018-01-11T16:45:06.630Z,40.00
2018-01-11T16:47:34.883Z,48.13
2018-01-11T16:50:02.557Z,38.97
2018-01-11T16:52:30.786Z,40.83
2018-01-11T16:54:58.453Z,35.23
2018-01-11T16:57:25.967Z,32.30
2018-01-11T16:59:54.227Z,36.50
2018-01-11T17:02:21.689Z,35.37
2018-01-11T17:04:50.652Z,37.77
2018-01-11T17:07:18.122Z,32.80
2018-01-11T17:09:45.602Z,36.43
2018-01-11T17:12:13.833Z,31.13
2018-01-11T17:14:41.309Z,34.20
2018-01-11T17:17:08.933Z,32.87
2018-01-11T17:19:36.533Z,44.83
2018-01-11T17:22:04.011Z,37.50
2018-01-11T17:24:31.534Z,37.73
2018-01-11T17:26:59.003Z,36.77
2018-01-11T17:29:26.492Z,33.27
2018-01-11T17:31:54.743Z,37.50
2018-01-11T17:34:22.281Z,32.40
2018-01-11T17:36:49.977Z,35.10
2018-01-11T17:39:18.228Z,30.87
2018-01-11T17:41:46.415Z,37.43
2018-01-11T17:44:13.909Z,31.33
2018-01-11T17:46:41.385Z,34.57
2018-01-11T17:49:08.854Z,35.67
2018-01-11T17:51:36.444Z,34.80
2018-01-11T17:54:03.978Z,37.90
2018-01-11T17:56:31.486Z,32.87
2018-01-11T17:58:59.759Z,35.50
2018-01-11T18:01:28.021Z,33.70
2018-01-11T18:03:56.269Z,35.67
2018-01-11T18:06:23.786Z,37.30
2018-01-11T18:08:52.004Z,35.00
2018-01-11T18:11:19.489Z,33.20
2018-01-11T18:13:47.743Z,41.93
2018-01-11T18:16:15.209Z,42.67
2018-01-11T18:18:42.734Z,40.47
2018-01-11T18:21:10.290Z,38.33
2018-01-11T18:23:37.926Z,46.77
2018-01-11T18:26:05.523Z,42.00
2018-01-11T18:28:33.208Z,40.10
2018-01-11T18:31:00.757Z,42.70
2018-01-11T18:33:28.292Z,37.33
2018-01-11T18:35:56.197Z,42.63
2018-01-11T18:38:23.807Z,47.77
2018-01-11T18:40:51.312Z,39.10
2018-01-11T18:43:18.918Z,42.73
2018-01-11T18:45:46.408Z,46.70
2018-01-11T18:48:14.008Z,43.70
2018-01-11T18:50:42.249Z,40.13
2018-01-11T18:53:09.782Z,41.17
2018-01-11T18:55:37.634Z,41.90
2018-01-11T18:58:05.100Z,41.13
2018-01-11T19:00:32.578Z,46.00
2018-01-11T19:03:00.106Z,49.47
2018-01-11T19:05:27.571Z,67.00
2018-01-11T19:07:55.054Z,40.97
2018-01-11T19:10:22.521Z,40.60
2018-01-11T19:12:50.005Z,46.10
2018-01-11T19:15:18.286Z,45.23
2018-01-11T19:17:46.543Z,40.73
2018-01-11T19:20:14.785Z,40.93
2018-01-11T19:22:42.252Z,36.87
2018-01-11T19:25:09.748Z,41.47
2018-01-11T19:27:38.062Z,48.50
2018-01-11T19:30:05.585Z,55.10
2018-01-11T19:32:33.823Z,66.80
2018-01-11T19:35:01.306Z,48.20
2018-01-11T19:37:29.533Z,52.63
2018-01-11T19:39:57.022Z,44.67
2018-01-11T19:42:24.994Z,48.03
2018-01-11T19:44:52.486Z,50.40
2018-01-11T19:47:19.945Z,50.53
2018-01-11T19:49:47.429Z,47.27
2018-01-11T19:52:14.941Z,44.00
2018-01-11T19:54:47.185Z,39.83
2018-01-11T19:57:14.655Z,41.43
2018-01-11T19:59:43.641Z,41.50
2018-01-11T20:02:11.185Z,49.67
2018-01-11T20:04:38.762Z,46.63
2018-01-11T20:07:06.226Z,43.80
2018-01-11T20:09:34.471Z,39.80
2018-01-11T20:12:02.196Z,43.57
2018-01-11T20:14:30.292Z,44.43
2018-01-11T20:16:57.794Z,41.20
2018-01-11T20:19:25.363Z,43.10
2018-01-11T20:21:53.621Z,43.60
2018-01-11T20:24:21.181Z,45.43
2018-01-11T20:26:48.660Z,44.57
2018-01-11T20:29:16.909Z,43.90
2018-01-11T20:31:44.383Z,38.73
2018-01-11T20:34:12.717Z,47.23
2018-01-11T20:36:40.321Z,42.80
2018-01-11T20:39:08.594Z,42.87
2018-01-11T20:41:36.054Z,49.40
2018-01-11T20:44:04.320Z,42.37
2018-01-11T20:46:32.586Z,51.43
2018-01-11T20:49:00.084Z,42.70
2018-01-11T20:51:27.674Z,50.00
2018-01-11T20:53:55.316Z,46.43
2018-01-11T20:56:22.801Z,59.13
2018-01-11T20:58:50.315Z,55.60
2018-01-11T21:01:18.266Z,50.37
2018-01-11T21:03:46.535Z,47.10
2018-01-11T21:06:14.004Z,48.00
2018-01-11T21:08:42.259Z,55.30
2018-01-11T21:11:09.910Z,50.20
2018-01-11T21:13:37.437Z,47.50
2018-01-11T21:16:04.957Z,47.67
2018-01-11T21:18:33.218Z,47.50
2018-01-11T21:21:00.809Z,46.27
2018-01-11T21:23:28.359Z,45.27
2018-01-11T21:25:56.697Z,44.97
2018-01-11T21:28:24.228Z,46.73
2018-01-11T21:30:51.796Z,51.10
2018-01-11T21:33:19.366Z,55.27
2018-01-11T21:35:46.868Z,48.63
2018-01-11T21:38:15.108Z,51.77
2018-01-11T21:40:42.705Z,44.17
2018-01-11T21:43:10.997Z,49.70
2018-01-11T21:45:38.542Z,48.17
2018-01-11T21:48:06.818Z,47.60
2018-01-11T21:50:35.125Z,52.30
2018-01-11T21:53:02.609Z,46.47
2018-01-11T21:55:30.185Z,43.07
2018-01-11T21:57:57.737Z,47.13
2018-01-11T22:00:25.329Z,40.63
2018-01-11T22:02:53.626Z,49.20
2018-01-11T22:05:21.286Z,48.27
2018-01-11T22:07:48.852Z,45.30
2018-01-11T22:10:16.339Z,42.17
2018-01-11T22:12:43.801Z,47.03
2018-01-11T22:15:11.281Z,48.80
2018-01-11T22:17:39.511Z,44.90
2018-01-11T22:20:07.021Z,44.50
2018-01-11T22:22:35.259Z,49.30
2018-01-11T22:25:02.769Z,44.83
2018-01-11T22:27:30.234Z,45.47
2018-01-11T22:29:57.726Z,42.10
2018-01-11T22:32:25.194Z,43.73
2018-01-11T22:34:52.683Z,47.00
2018-01-11T22:37:20.927Z,43.90
2018-01-11T22:39:48.393Z,46.50
2018-01-11T22:42:15.895Z,46.10
2018-01-11T22:44:43.421Z,42.43
2018-01-11T22:47:12.420Z,47.27
2018-01-11T22:49:40.730Z,46.73
2018-01-11T22:52:08.200Z,46.53
2018-01-11T22:54:35.673Z,40.17
2018-01-11T22:57:03.149Z,45.47
2018-01-11T22:59:30.655Z,38.77
2018-01-11T23:01:58.201Z,46.17
2018-01-11T23:04:26.500Z,42.90
2018-01-11T23:06:54.060Z,43.43
2018-01-11T23:09:21.594Z,38.37
2018-01-11T23:11:49.070Z,47.87
2018-01-11T23:14:16.555Z,41.07
2018-01-11T23:16:44.035Z,43.40
2018-01-11T23:19:11.545Z,39.30
2018-01-11T23:21:39.006Z,41.93
2018-01-11T23:24:06.483Z,41.33
2018-01-11T23:26:33.969Z,39.17
2018-01-11T23:29:01.610Z,40.43
2018-01-11T23:31:29.518Z,45.70
2018-01-11T23:33:56.993Z,44.07
2018-01-11T23:36:24.469Z,40.47
2018-01-11T23:38:51.937Z,42.10
2018-01-11T23:41:19.426Z,39.70
2018-01-11T23:43:46.893Z,41.70
2018-01-11T23:46:15.133Z,49.67
2018-01-11T23:48:42.596Z,40.47
2018-01-11T23:51:10.085Z,40.00
2018-01-11T23:53:38.352Z,40.20
2018-01-11T23:56:06.617Z,49.47
2018-01-11T23:58:35.130Z,36.50
